Armadale, Australia
Current Conditions -  °F | °C
As of 11:00 PM on Friday 24 Oct 2014 (Local Time) from YPJT Reporting Station
Clear Clear  
Wind Chill: 57°   Ceiling: Unl
Heat Index: 57°   Visibility: 6mi
Dew Point: 54°   Wind: 3mph
Humidity: 88%   Direction: 210°SSW
Pressure: 30"   Gusts: NA
Location:  32.15°S, 116°E
Report Text: YPJT 241500Z AUTO 21003KT 9999 // NCD 14/12 Q1016
Loading
Personal Weather Stations






























Interactive Weather Map
Tropical Storm Tracking
New forecast layout! Learn more

10-Day Weather Forecast

Advertisements
Track Severe Weather on mobile